createdAt,value
2019-05-01T06:46:11.364Z,8.30
2019-05-01T06:51:38.973Z,8.50
2019-05-01T06:57:05.723Z,8.40
2019-05-01T07:02:37.427Z,8.50
2019-05-01T07:13:19.795Z,8.60
2019-05-01T07:18:50.188Z,8.60
2019-05-01T07:24:16.018Z,8.70
2019-05-01T07:29:46.640Z,8.70
2019-05-01T07:35:04.417Z,8.80
2019-05-01T07:40:30.983Z,8.80
2019-05-01T07:45:45.950Z,8.90
2019-05-01T07:51:10.279Z,9.00
2019-05-01T07:56:31.013Z,9.20
2019-05-01T08:01:56.187Z,9.20
2019-05-01T08:07:08.573Z,9.30
2019-05-01T08:12:26.457Z,9.40
2019-05-01T08:17:54.278Z,9.50
2019-05-01T08:23:14.217Z,9.50
2019-05-01T08:28:33.318Z,9.60
2019-05-01T08:33:53.265Z,9.60
2019-05-01T08:39:21.972Z,9.60
2019-05-01T08:45:06.898Z,9.60
2019-05-01T08:51:03.264Z,9.70
2019-05-01T08:57:53.084Z,9.70
2019-05-01T09:03:56.528Z,9.90
2019-05-01T09:09:48.713Z,10.00
2019-05-01T09:16:34.522Z,10.20
2019-05-01T09:22:37.792Z,10.20
2019-05-01T09:29:17.852Z,10.30
2019-05-01T09:34:25.776Z,10.40
2019-05-01T09:39:48.149Z,10.40
2019-05-01T09:45:05.309Z,10.50
2019-05-01T09:50:08.755Z,10.60
2019-05-01T09:55:43.387Z,10.70
2019-05-01T10:00:54.765Z,10.80
2019-05-01T10:05:58.532Z,10.90
2019-05-01T10:11:29.641Z,11.10
2019-05-01T10:16:23.642Z,11.20
2019-05-01T10:21:37.132Z,11.10
2019-05-01T10:26:41.460Z,11.10
2019-05-01T10:32:23.198Z,11.30
2019-05-01T10:37:33.518Z,11.60
2019-05-01T10:42:31.830Z,11.70
2019-05-01T10:47:52.374Z,11.60
2019-05-01T10:52:47.162Z,11.60
2019-05-01T10:57:52.513Z,11.60
2019-05-01T11:02:58.122Z,11.70
2019-05-01T11:08:02.131Z,11.90
2019-05-01T11:12:57.806Z,12.00
2019-05-01T11:18:17.249Z,12.20
2019-05-01T11:23:17.472Z,12.40
2019-05-01T11:28:18.964Z,12.50
2019-05-01T11:33:11.585Z,12.60
2019-05-01T11:38:05.973Z,12.80
2019-05-01T11:43:03.589Z,12.90
2019-05-01T11:47:57.655Z,12.90
2019-05-01T11:53:00.569Z,13.00
2019-05-01T11:58:11.316Z,13.00
2019-05-01T12:03:13.184Z,12.90
2019-05-01T12:08:14.808Z,13.00
2019-05-01T12:13:08.479Z,13.20
2019-05-01T12:18:04.304Z,13.40
2019-05-01T12:23:07.710Z,13.50
2019-05-01T12:28:00.856Z,13.70
2019-05-01T12:32:54.213Z,13.80
2019-05-01T12:37:50.297Z,13.90
2019-05-01T12:42:53.595Z,14.00
2019-05-01T12:47:47.775Z,14.10
2019-05-01T12:52:51.028Z,14.20
2019-05-01T12:57:44.854Z,14.30
2019-05-01T13:02:36.850Z,14.40
2019-05-01T13:07:32.754Z,14.40
2019-05-01T13:12:27.564Z,14.20
2019-05-01T13:17:21.829Z,14.20
2019-05-01T13:22:17.945Z,14.30
2019-05-01T13:27:14.249Z,14.30
2019-05-01T13:32:09.401Z,14.50
2019-05-01T13:37:04.419Z,14.90
2019-05-01T13:41:59.481Z,15.10
2019-05-01T13:46:55.897Z,15.30
2019-05-01T13:51:47.950Z,15.60
2019-05-01T13:56:41.180Z,16.10
2019-05-01T14:01:33.793Z,16.20
2019-05-01T14:06:25.905Z,16.20
2019-05-01T14:11:17.870Z,16.10
2019-05-01T14:16:18.960Z,16.20
2019-05-01T14:21:10.475Z,16.50
2019-05-01T14:26:03.382Z,16.60
2019-05-01T14:30:55.840Z,16.40
2019-05-01T14:35:48.462Z,16.50
2019-05-01T14:40:41.289Z,16.50
2019-05-01T14:45:34.136Z,16.60
2019-05-01T14:50:52.144Z,16.70
2019-05-01T14:55:52.015Z,17.20
2019-05-01T15:07:27.379Z,17.80
2019-05-01T15:12:32.405Z,18.10
2019-05-01T15:18:07.764Z,18.40
2019-05-01T15:23:05.443Z,18.20
2019-05-01T15:28:05.113Z,17.80
2019-05-01T15:33:06.032Z,17.60
2019-05-01T15:43:58.730Z,16.80
2019-05-01T15:49:55.192Z,16.60
2019-05-01T16:01:25.905Z,16.70
2019-05-01T16:06:48.273Z,16.50
2019-05-01T16:11:54.773Z,16.50
2019-05-01T16:21:58.710Z,16.40
2019-05-01T16:27:14.219Z,16.30
2019-05-01T16:32:03.452Z,16.30
2019-05-01T16:36:59.722Z,16.20
2019-05-01T16:48:06.959Z,16.30
2019-05-01T16:53:14.284Z,16.20
2019-05-01T17:17:07.070Z,15.90
2019-05-01T17:38:55.787Z,15.40
2019-05-01T17:44:03.898Z,15.40
2019-05-01T17:55:09.749Z,15.10
2019-05-01T18:00:14.194Z,15.00
2019-05-01T18:06:03.184Z,14.80
2019-05-01T18:10:59.787Z,14.60
2019-05-01T18:16:50.101Z,14.50
2019-05-01T18:27:14.572Z,14.10
2019-05-01T18:34:40.632Z,13.90
2019-05-01T18:40:04.807Z,13.70
2019-05-01T18:45:27.393Z,13.60
2019-05-01T18:56:48.464Z,13.20
2019-05-01T19:02:01.461Z,12.90
2019-05-01T19:07:19.675Z,12.70
2019-05-01T19:13:12.508Z,12.60
2019-05-01T19:18:52.345Z,12.40
2019-05-01T19:24:44.270Z,12.30
2019-05-01T19:48:15.266Z,12.10
2019-05-01T20:04:22.321Z,11.60
2019-05-01T20:10:27.394Z,11.10
2019-05-01T20:15:59.109Z,10.90
2019-05-01T20:24:04.218Z,10.70
2019-05-01T20:29:57.631Z,10.60
2019-05-01T20:35:12.546Z,10.50
2019-05-01T20:43:54.095Z,10.50
2019-05-01T20:50:08.089Z,10.40
2019-05-01T20:55:21.545Z,10.30
2019-05-01T21:04:10.592Z,10.30
2019-05-01T21:10:59.747Z,10.10
2019-05-01T21:35:13.668Z,10.00
2019-05-01T21:49:05.463Z,9.80
2019-05-01T22:02:28.081Z,9.60
2019-05-01T22:08:06.566Z,9.50
2019-05-01T22:13:25.866Z,9.40
2019-05-01T22:19:37.923Z,9.30
2019-05-01T22:33:33.835Z,9.10
2019-05-01T22:41:45.692Z,8.80
